Time,TemperatureF,DewpointF,PressureIn,WindDirection,WindDirectionDegrees,WindSpeedMPH,WindSpeedGustMPH,Humidity,HourlyPrecipIn,Conditions,Clouds,dailyrainin,SolarRadiationWatts/m^2,SoftwareType,DateUTC
2013-07-02 00:00:00,64.2,54.2,30.02,South,186,0.0,0.0,70,0.00,,---,0.00,0.00,VWS V14.01,2013-07-01 22:00:00,
2013-07-02 00:10:00,63.8,53.8,30.02,South,186,0.0,1.0,70,0.00,,---,0.00,0.00,VWS V14.01,2013-07-01 22:10:00,
2013-07-02 00:15:00,63.4,53.5,30.02,South,186,0.0,0.0,70,0.00,,---,0.00,0.00,VWS V14.01,2013-07-01 22:15:00,
2013-07-02 00:25:00,63.0,53.1,30.02,South,186,2.0,3.0,70,0.00,,---,0.00,0.00,VWS V14.01,2013-07-01 22:25:00,
2013-07-02 00:30:00,62.9,52.6,30.02,South,188,1.0,5.0,69,0.00,,---,0.00,0.00,VWS V14.01,2013-07-01 22:30:00,
2013-07-02 00:35:00,62.8,52.5,30.02,South,188,0.0,1.0,69,0.00,,---,0.00,0.00,VWS V14.01,2013-07-01 22:35:00,
2013-07-02 00:40:00,62.8,52.5,30.02,South,188,0.0,0.0,69,0.00,,---,0.00,0.00,VWS V14.01,2013-07-01 22:40:00,
2013-07-02 00:50:00,62.7,52.8,30.02,South,188,0.0,0.0,70,0.00,,---,0.00,0.00,VWS V14.01,2013-07-01 22:50:00,
2013-07-02 00:55:00,62.6,52.7,30.02,South,188,0.0,0.0,70,0.00,,---,0.00,0.00,VWS V14.01,2013-07-01 22:55:00,
2013-07-02 01:00:00,62.5,52.6,30.02,South,188,0.0,0.0,70,0.00,,---,0.00,0.00,VWS V14.01,2013-07-01 23:00:00,
2013-07-02 01:10:00,62.2,52.7,30.02,South,188,0.0,0.0,71,0.00,,---,0.00,0.00,VWS V14.01,2013-07-01 23:10:00,
2013-07-02 01:20:00,62.0,52.9,30.02,South,188,0.0,0.0,72,0.00,,---,0.00,0.00,VWS V14.01,2013-07-01 23:20:00,
2013-07-02 01:25:00,61.8,53.1,30.02,South,188,0.0,0.0,73,0.00,,---,0.00,0.00,VWS V14.01,2013-07-01 23:25:00,
2013-07-02 01:30:00,61.7,53.0,30.02,South,188,0.0,0.0,73,0.00,,---,0.00,0.00,VWS V14.01,2013-07-01 23:30:00,
2013-07-02 01:35:00,61.7,53.3,30.02,South,188,0.0,0.0,74,0.00,,---,0.00,0.00,VWS V14.01,2013-07-01 23:35:00,
2013-07-02 01:45:00,61.5,53.2,30.02,South,188,0.0,0.0,74,0.00,,---,0.00,0.00,VWS V14.01,2013-07-01 23:45:00,
2013-07-02 01:50:00,61.4,53.0,30.02,South,188,0.0,0.0,74,0.00,,---,0.00,0.00,VWS V14.01,2013-07-01 23:50:00,
2013-07-02 01:55:00,61.3,53.0,30.02,South,188,1.0,1.0,74,0.00,,---,0.00,0.00,VWS V14.01,2013-07-01 23:55:00,
2013-07-02 02:00:00,61.1,52.8,30.02,South,188,0.0,0.0,74,0.00,,---,0.00,0.00,VWS V14.01,2013-07-02 00:00:00,
2013-07-02 02:05:00,61.0,52.7,30.02,South,188,0.0,0.0,74,0.00,,---,0.00,0.00,VWS V14.01,2013-07-02 00:05:00,
2013-07-02 02:10:00,60.9,52.6,30.02,South,188,0.0,0.0,74,0.00,,---,0.00,0.00,VWS V14.01,2013-07-02 00:10:00,
2013-07-02 02:20:00,60.7,52.7,30.01,South,188,0.0,0.0,75,0.00,,---,0.00,0.00,VWS V14.01,2013-07-02 00:20:00,
2013-07-02 02:30:00,60.5,52.9,30.01,South,188,0.0,0.0,76,0.00,,---,0.00,0.00,VWS V14.01,2013-07-02 00:30:00,
2013-07-02 02:35:00,60.3,52.7,30.01,South,188,0.0,0.0,76,0.00,,---,0.00,0.00,VWS V14.01,2013-07-02 00:35:00,
2013-07-02 02:45:00,60.0,52.4,30.01,South,188,0.0,0.0,76,0.00,,---,0.00,0.00,VWS V14.01,2013-07-02 00:45:00,
2013-07-02 02:50:00,59.9,52.3,30.01,South,188,0.0,0.0,76,0.00,,---,0.00,0.00,VWS V14.01,2013-07-02 00:50:00,
2013-07-02 02:55:00,59.8,52.6,30.01,South,188,0.0,0.0,77,0.00,,---,0.00,0.00,VWS V14.01,2013-07-02 00:55:00,
2013-07-02 03:00:00,59.6,52.4,30.00,South,188,0.0,0.0,77,0.00,,---,0.00,0.00,VWS V14.01,2013-07-02 01:00:00,
2013-07-02 03:10:00,59.3,52.5,30.00,South,188,0.0,0.0,78,0.00,,---,0.00,0.00,VWS V14.01,2013-07-02 01:10:00,
2013-07-02 03:15:00,59.0,52.2,30.00,South,188,0.0,0.0,78,0.00,,---,0.00,0.00,VWS V14.01,2013-07-02 01:15:00,
2013-07-02 03:20:00,59.0,52.2,30.00,South,188,0.0,0.0,78,0.00,,---,0.00,0.00,VWS V14.01,2013-07-02 01:20:00,
2013-07-02 03:25:00,59.0,52.5,30.00,South,188,0.0,0.0,79,0.00,,---,0.00,0.00,VWS V14.01,2013-07-02 01:25:00,
2013-07-02 03:30:00,59.0,52.5,30.00,South,188,0.0,0.0,79,0.00,,---,0.00,0.00,VWS V14.01,2013-07-02 01:30:00,
2013-07-02 03:35:00,58.7,52.6,30.00,South,188,0.0,0.0,80,0.00,,---,0.00,0.00,VWS V14.01,2013-07-02 01:35:00,
2013-07-02 03:40:00,58.5,52.4,30.00,South,188,0.0,0.0,80,0.00,,---,0.00,0.00,VWS V14.01,2013-07-02 01:40:00,
2013-07-02 03:45:00,58.4,52.3,29.99,South,188,0.0,0.0,80,0.00,,---,0.00,0.00,VWS V14.01,2013-07-02 01:45:00,
2013-07-02 03:50:00,58.3,52.2,29.99,South,188,0.0,0.0,80,0.00,,---,0.00,0.00,VWS V14.01,2013-07-02 01:50:00,
2013-07-02 03:55:00,58.2,52.4,29.99,South,188,0.0,0.0,81,0.00,,---,0.00,0.00,VWS V14.01,2013-07-02 01:55:00,
2013-07-02 04:00:00,58.0,52.2,29.99,South,188,0.0,0.0,81,0.00,,---,0.00,0.00,VWS V14.01,2013-07-02 02:00:00,
2013-07-02 04:10:00,57.7,51.9,29.99,South,188,0.0,0.0,81,0.00,,---,0.00,0.00,VWS V14.01,2013-07-02 02:10:00,
2013-07-02 04:20:00,57.5,52.1,29.99,South,188,0.0,0.0,82,0.00,,---,0.00,0.00,VWS V14.01,2013-07-02 02:20:00,
2013-07-02 04:25:00,57.4,52.0,29.99,South,188,0.0,0.0,82,0.00,,---,0.00,0.00,VWS V14.01,2013-07-02 02:25:00,
2013-07-02 04:35:00,57.2,51.8,29.99,South,188,0.0,0.0,82,0.00,,---,0.00,0.00,VWS V14.01,2013-07-02 02:35:00,
2013-07-02 04:40:00,57.1,51.7,29.99,South,188,0.0,0.0,82,0.00,,---,0.00,0.00,VWS V14.01,2013-07-02 02:40:00,
2013-07-02 04:45:00,57.1,51.7,29.99,South,188,0.0,0.0,82,0.00,,---,0.00,0.00,VWS V14.01,2013-07-02 02:45:00,
2013-07-02 04:50:00,57.0,51.9,29.99,South,188,0.0,0.0,83,0.00,,---,0.00,0.00,VWS V14.01,2013-07-02 02:50:00,
2013-07-02 04:55:00,56.9,51.8,29.99,South,188,0.0,0.0,83,0.00,,---,0.00,0.00,VWS V14.01,2013-07-02 02:55:00,
2013-07-02 05:00:00,56.8,51.7,29.99,South,188,0.0,0.0,83,0.00,,---,0.00,5.00,VWS V14.01,2013-07-02 03:00:00,
2013-07-02 05:10:00,56.8,51.7,29.99,South,188,0.0,0.0,83,0.00,,---,0.00,9.00,VWS V14.01,2013-07-02 03:10:00,
2013-07-02 05:20:00,56.9,51.5,30.00,South,188,0.0,1.0,82,0.00,,---,0.00,14.00,VWS V14.01,2013-07-02 03:20:00,
2013-07-02 05:25:00,57.0,51.2,30.00,South,188,0.0,0.0,81,0.00,,---,0.00,16.00,VWS V14.01,2013-07-02 03:25:00,
2013-07-02 05:30:00,57.1,51.3,30.00,SSW,213,0.0,1.0,81,0.00,,---,0.00,21.00,VWS V14.01,2013-07-02 03:30:00,
2013-07-02 05:35:00,57.4,51.3,30.00,SSW,213,0.0,1.0,80,0.00,,---,0.00,25.00,VWS V14.01,2013-07-02 03:35:00,
2013-07-02 05:45:00,57.7,51.2,30.01,SW,223,0.0,0.0,79,0.00,,---,0.00,32.00,VWS V14.01,2013-07-02 03:45:00,
2013-07-02 05:55:00,57.9,51.4,30.01,SW,223,0.0,5.0,79,0.00,,---,0.00,46.00,VWS V14.01,2013-07-02 03:55:00,
2013-07-02 06:00:00,58.0,51.2,30.01,SW,223,1.0,2.0,78,0.00,,---,0.00,56.00,VWS V14.01,2013-07-02 04:00:00,
2013-07-02 06:05:00,58.0,51.2,30.01,SW,223,2.0,4.0,78,0.00,,---,0.00,63.00,VWS V14.01,2013-07-02 04:05:00,
2013-07-02 06:10:00,58.1,51.3,30.01,SW,219,0.0,4.0,78,0.00,,---,0.00,70.00,VWS V14.01,2013-07-02 04:10:00,
2013-07-02 06:15:00,58.3,51.5,30.01,SW,219,0.0,0.0,78,0.00,,---,0.00,79.00,VWS V14.01,2013-07-02 04:15:00,
2013-07-02 06:20:00,58.4,51.6,30.01,SW,219,0.0,0.0,78,0.00,,---,0.00,111.00,VWS V14.01,2013-07-02 04:20:00,
2013-07-02 06:25:00,58.5,51.7,30.01,SW,219,0.0,3.0,78,0.00,,---,0.00,181.00,VWS V14.01,2013-07-02 04:25:00,
2013-07-02 06:30:00,58.7,51.9,30.01,SSW,209,4.0,6.0,78,0.00,,---,0.00,163.00,VWS V14.01,2013-07-02 04:30:00,
2013-07-02 06:40:00,59.0,51.8,30.01,SW,218,0.0,2.0,77,0.00,,---,0.00,141.00,VWS V14.01,2013-07-02 04:40:00,
2013-07-02 06:45:00,59.3,52.1,30.01,SW,219,2.0,3.0,77,0.00,,---,0.00,120.00,VWS V14.01,2013-07-02 04:45:00,
2013-07-02 06:50:00,59.5,51.9,30.01,SW,219,0.0,0.0,76,0.00,,---,0.00,125.00,VWS V14.01,2013-07-02 04:50:00,
2013-07-02 06:55:00,59.7,52.1,30.01,SW,230,4.0,5.0,76,0.00,,---,0.00,109.00,VWS V14.01,2013-07-02 04:55:00,
2013-07-02 07:00:00,59.9,52.3,30.01,SW,234,0.0,0.0,76,0.00,,---,0.00,98.00,VWS V14.01,2013-07-02 05:00:00,
2013-07-02 07:10:00,60.2,52.6,30.01,WSW,238,3.0,4.0,76,0.00,,---,0.00,221.00,VWS V14.01,2013-07-02 05:10:00,
2013-07-02 07:15:00,60.4,52.5,30.01,WSW,238,3.0,3.0,75,0.00,,---,0.00,211.00,VWS V14.01,2013-07-02 05:15:00,
2013-07-02 07:25:00,60.9,52.9,30.01,SSW,196,0.0,7.0,75,0.00,,---,0.00,304.00,VWS V14.01,2013-07-02 05:25:00,
2013-07-02 07:30:00,61.2,52.9,30.02,WSW,250,4.0,4.0,74,0.00,,---,0.00,316.00,VWS V14.01,2013-07-02 05:30:00,
2013-07-02 07:35:00,61.4,52.7,30.02,SSW,209,2.0,7.0,73,0.00,,---,0.00,237.00,VWS V14.01,2013-07-02 05:35:00,
2013-07-02 07:40:00,61.6,52.9,30.02,SW,232,1.0,3.0,73,0.00,,---,0.00,322.00,VWS V14.01,2013-07-02 05:40:00,
2013-07-02 07:45:00,61.8,53.1,30.02,SSW,205,4.0,6.0,73,0.00,,---,0.00,362.00,VWS V14.01,2013-07-02 05:45:00,
2013-07-02 07:55:00,62.3,53.2,30.02,SSW,205,5.0,10.0,72,0.00,,---,0.00,443.00,VWS V14.01,2013-07-02 05:55:00,
2013-07-02 08:00:00,62.6,53.1,30.02,South,176,3.0,8.0,71,0.00,,---,0.00,338.00,VWS V14.01,2013-07-02 06:00:00,
2013-07-02 08:10:00,63.3,53.8,30.02,South,191,0.0,6.0,71,0.00,,---,0.00,457.00,VWS V14.01,2013-07-02 06:10:00,
2013-07-02 08:15:00,63.6,53.7,30.02,SSW,211,5.0,6.0,70,0.00,,---,0.00,466.00,VWS V14.01,2013-07-02 06:15:00,
2013-07-02 08:20:00,63.9,53.9,30.02,South,176,3.0,9.0,70,0.00,,---,0.00,476.00,VWS V14.01,2013-07-02 06:20:00,
2013-07-02 08:25:00,64.1,54.1,30.02,SSW,202,6.0,8.0,70,0.00,,---,0.00,494.00,VWS V14.01,2013-07-02 06:25:00,
2013-07-02 08:30:00,64.3,54.3,30.02,SSW,203,3.0,9.0,70,0.00,,---,0.00,504.00,VWS V14.01,2013-07-02 06:30:00,
2013-07-02 08:35:00,64.6,54.2,30.02,WSW,246,1.0,4.0,69,0.00,,---,0.00,513.00,VWS V14.01,2013-07-02 06:35:00,
2013-07-02 08:40:00,65.1,54.7,30.02,NW,304,2.0,3.0,69,0.00,,---,0.00,524.00,VWS V14.01,2013-07-02 06:40:00,
2013-07-02 08:50:00,65.8,54.1,30.02,WNW,300,0.0,4.0,66,0.00,,---,0.00,557.00,VWS V14.01,2013-07-02 06:50:00,
2013-07-02 09:00:00,66.7,54.6,30.02,WSW,248,5.0,7.0,65,0.00,,---,0.00,591.00,VWS V14.01,2013-07-02 07:00:00,
2013-07-02 09:10:00,67.3,54.7,30.02,WSW,250,5.0,6.0,64,0.00,,---,0.00,624.00,VWS V14.01,2013-07-02 07:10:00,
2013-07-02 09:20:00,68.0,55.0,30.02,SSW,209,2.0,5.0,63,0.00,,---,0.00,631.00,VWS V14.01,2013-07-02 07:20:00,
2013-07-02 09:25:00,68.2,55.1,30.02,WSW,253,6.0,6.0,63,0.00,,---,0.00,638.00,VWS V14.01,2013-07-02 07:25:00,
2013-07-02 09:30:00,68.4,54.9,30.01,SW,226,2.0,3.0,62,0.00,,---,0.00,633.00,VWS V14.01,2013-07-02 07:30:00,
2013-07-02 09:35:00,68.8,55.3,30.01,WSW,248,3.0,5.0,62,0.00,,---,0.00,664.00,VWS V14.01,2013-07-02 07:35:00,
2013-07-02 09:45:00,69.4,54.9,30.01,NW,304,0.0,2.0,60,0.00,,---,0.00,689.00,VWS V14.01,2013-07-02 07:45:00,
2013-07-02 09:55:00,70.0,55.5,30.01,WSW,246,3.0,5.0,60,0.00,,---,0.00,714.00,VWS V14.01,2013-07-02 07:55:00,
2013-07-02 10:00:00,70.3,55.8,30.01,West,268,1.0,1.0,60,0.00,,---,0.00,724.00,VWS V14.01,2013-07-02 08:00:00,
2013-07-02 10:10:00,71.1,56.1,30.01,South,179,5.0,5.0,59,0.00,,---,0.00,738.00,VWS V14.01,2013-07-02 08:10:00,
2013-07-02 10:20:00,71.4,55.9,30.00,WNW,283,3.0,5.0,58,0.00,,---,0.00,761.00,VWS V14.01,2013-07-02 08:20:00,
2013-07-02 10:30:00,72.2,55.7,30.00,SSW,207,7.0,7.0,56,0.00,,---,0.00,777.00,VWS V14.01,2013-07-02 08:30:00,
2013-07-02 10:35:00,72.5,55.9,30.00,SW,217,0.0,6.0,56,0.00,,---,0.00,788.00,VWS V14.01,2013-07-02 08:35:00,
2013-07-02 10:40:00,72.9,55.3,30.00,WSW,246,2.0,5.0,54,0.00,,---,0.00,791.00,VWS V14.01,2013-07-02 08:40:00,
2013-07-02 10:45:00,73.3,55.7,30.00,West,273,4.0,6.0,54,0.00,,---,0.00,795.00,VWS V14.01,2013-07-02 08:45:00,
2013-07-02 10:50:00,73.6,56.0,30.00,NW,321,3.0,7.0,54,0.00,,---,0.00,802.00,VWS V14.01,2013-07-02 08:50:00,
2013-07-02 11:00:00,73.8,55.6,29.99,NW,317,3.0,9.0,53,0.00,,---,0.00,826.00,VWS V14.01,2013-07-02 09:00:00,
2013-07-02 11:10:00,74.2,56.0,29.99,SSW,195,0.0,0.0,53,0.00,,---,0.00,833.00,VWS V14.01,2013-07-02 09:10:00,
2013-07-02 11:15:00,74.7,55.9,29.99,SW,236,0.0,5.0,52,0.00,,---,0.00,840.00,VWS V14.01,2013-07-02 09:15:00,
2013-07-02 11:20:00,74.9,55.6,29.99,SW,228,2.0,10.0,51,0.00,,---,0.00,844.00,VWS V14.01,2013-07-02 09:20:00,
2013-07-02 11:25:00,75.2,55.8,29.99,SW,227,0.0,11.0,51,0.00,,---,0.00,849.00,VWS V14.01,2013-07-02 09:25:00,
2013-07-02 11:35:00,75.8,55.9,29.99,WSW,250,0.0,1.0,50,0.00,,---,0.00,863.00,VWS V14.01,2013-07-02 09:35:00,
2013-07-02 11:45:00,75.3,56.5,29.98,WSW,243,8.0,18.0,52,0.00,,---,0.00,875.00,VWS V14.01,2013-07-02 09:45:00,
2013-07-02 11:50:00,74.9,56.1,29.98,SW,214,5.0,8.0,52,0.00,,---,0.00,882.00,VWS V14.01,2013-07-02 09:50:00,
2013-07-02 11:55:00,75.4,56.6,29.98,SSE,152,4.0,5.0,52,0.00,,---,0.00,886.00,VWS V14.01,2013-07-02 09:55:00,
2013-07-02 12:00:00,75.4,56.0,29.99,SSE,152,1.0,7.0,51,0.00,,---,0.00,893.00,VWS V14.01,2013-07-02 10:00:00,
2013-07-02 12:10:00,76.0,55.5,29.99,West,281,0.0,5.0,49,0.00,,---,0.00,928.00,VWS V14.01,2013-07-02 10:10:00,
2013-07-02 12:20:00,77.6,55.2,29.98,South,188,5.0,5.0,46,0.00,,---,0.00,895.00,VWS V14.01,2013-07-02 10:20:00,
2013-07-02 12:25:00,76.9,55.2,29.98,WSW,251,0.0,7.0,47,0.00,,---,0.00,937.00,VWS V14.01,2013-07-02 10:25:00,
2013-07-02 12:30:00,77.4,56.2,29.98,WSW,250,6.0,8.0,48,0.00,,---,0.00,928.00,VWS V14.01,2013-07-02 10:30:00,
2013-07-02 12:40:00,76.9,55.7,29.98,North,5,0.0,5.0,48,0.00,,---,0.00,974.00,VWS V14.01,2013-07-02 10:40:00,
2013-07-02 12:45:00,77.7,55.9,29.98,WNW,293,12.0,12.0,47,0.00,,---,0.00,998.00,VWS V14.01,2013-07-02 10:45:00,
2013-07-02 12:50:00,78.1,55.7,29.98,NNW,348,0.0,3.0,46,0.00,,---,0.00,1021.00,VWS V14.01,2013-07-02 10:50:00,
2013-07-02 13:00:00,78.5,56.0,29.98,SW,218,3.0,3.0,46,0.00,,---,0.00,946.00,VWS V14.01,2013-07-02 11:00:00,
2013-07-02 13:10:00,77.1,56.5,29.98,West,275,4.0,5.0,49,0.00,,---,0.00,998.00,VWS V14.01,2013-07-02 11:10:00,
2013-07-02 13:15:00,77.3,56.7,29.97,WSW,252,1.0,10.0,49,0.00,,---,0.00,1005.00,VWS V14.01,2013-07-02 11:15:00,
2013-07-02 13:20:00,77.6,57.0,29.97,SSW,213,12.0,12.0,49,0.00,,---,0.00,186.00,VWS V14.01,2013-07-02 11:20:00,
2013-07-02 13:25:00,77.0,56.4,29.97,SSW,209,4.0,9.0,49,0.00,,---,0.00,251.00,VWS V14.01,2013-07-02 11:25:00,
2013-07-02 13:30:00,77.2,56.6,29.97,South,190,10.0,12.0,49,0.00,,---,0.00,1053.00,VWS V14.01,2013-07-02 11:30:00,
2013-07-02 13:40:00,78.3,56.4,29.97,South,190,1.0,3.0,47,0.00,,---,0.00,230.00,VWS V14.01,2013-07-02 11:40:00,
2013-07-02 13:45:00,77.6,56.4,29.96,SW,227,0.0,6.0,48,0.00,,---,0.00,345.00,VWS V14.01,2013-07-02 11:45:00,
2013-07-02 13:50:00,78.1,56.2,29.96,SW,232,4.0,10.0,47,0.00,,---,0.00,652.00,VWS V14.01,2013-07-02 11:50:00,
2013-07-02 13:55:00,78.4,55.3,29.96,SSW,203,6.0,11.0,45,0.00,,---,0.00,990.00,VWS V14.01,2013-07-02 11:55:00,
2013-07-02 14:00:00,77.7,55.3,29.96,SW,230,0.0,1.0,46,0.00,,---,0.00,700.00,VWS V14.01,2013-07-02 12:00:00,
2013-07-02 14:10:00,78.7,55.6,29.96,WNW,292,12.0,12.0,45,0.00,,---,0.00,1083.00,VWS V14.01,2013-07-02 12:10:00,
2013-07-02 14:15:00,78.1,55.0,29.96,WNW,296,0.0,7.0,45,0.00,,---,0.00,705.00,VWS V14.01,2013-07-02 12:15:00,
2013-07-02 14:25:00,78.7,55.6,29.96,NW,317,0.0,7.0,45,0.00,,---,0.00,986.00,VWS V14.01,2013-07-02 12:25:00,
2013-07-02 14:30:00,79.4,55.0,29.96,West,280,3.0,11.0,43,0.00,,---,0.00,977.00,VWS V14.01,2013-07-02 12:30:00,
2013-07-02 14:35:00,79.7,54.6,29.96,WSW,241,6.0,12.0,42,0.00,,---,0.00,923.00,VWS V14.01,2013-07-02 12:35:00,
2013-07-02 14:40:00,79.8,54.7,29.96,WNW,284,12.0,13.0,42,0.00,,---,0.00,849.00,VWS V14.01,2013-07-02 12:40:00,
2013-07-02 14:50:00,79.3,53.6,29.96,SW,225,4.0,16.0,41,0.00,,---,0.00,826.00,VWS V14.01,2013-07-02 12:50:00,
2013-07-02 14:55:00,79.4,53.7,29.96,SW,236,4.0,13.0,41,0.00,,---,0.00,851.00,VWS V14.01,2013-07-02 12:55:00,
2013-07-02 15:00:00,80.6,54.1,29.95,West,281,5.0,10.0,40,0.00,,---,0.00,824.00,VWS V14.01,2013-07-02 13:00:00,
2013-07-02 15:10:00,80.1,55.0,29.95,WSW,257,3.0,5.0,42,0.00,,---,0.00,833.00,VWS V14.01,2013-07-02 13:10:00,
2013-07-02 15:20:00,80.3,54.5,29.95,WNW,302,0.0,1.0,41,0.00,,---,0.00,541.00,VWS V14.01,2013-07-02 13:20:00,
2013-07-02 15:25:00,80.9,55.0,29.95,SW,221,6.0,7.0,41,0.00,,---,0.00,833.00,VWS V14.01,2013-07-02 13:25:00,
2013-07-02 15:30:00,80.2,55.0,29.94,NW,321,4.0,8.0,42,0.00,,---,0.00,809.00,VWS V14.01,2013-07-02 13:30:00,
2013-07-02 15:35:00,80.8,54.9,29.94,West,259,2.0,13.0,41,0.00,,---,0.00,777.00,VWS V14.01,2013-07-02 13:35:00,
2013-07-02 15:45:00,80.0,54.9,29.94,WNW,297,0.0,11.0,42,0.00,,---,0.00,765.00,VWS V14.01,2013-07-02 13:45:00,
2013-07-02 15:50:00,80.9,55.7,29.94,West,269,1.0,10.0,42,0.00,,---,0.00,768.00,VWS V14.01,2013-07-02 13:50:00,
2013-07-02 16:00:00,81.5,56.2,29.94,SSW,209,4.0,15.0,42,0.00,,---,0.00,735.00,VWS V14.01,2013-07-02 14:00:00,
2013-07-02 16:10:00,81.2,56.0,29.94,WNW,288,0.0,8.0,42,0.00,,---,0.00,735.00,VWS V14.01,2013-07-02 14:10:00,
2013-07-02 16:15:00,80.8,55.6,29.94,WSW,242,10.0,14.0,42,0.00,,---,0.00,715.00,VWS V14.01,2013-07-02 14:15:00,
2013-07-02 16:20:00,80.8,55.6,29.94,SW,227,10.0,11.0,42,0.00,,---,0.00,693.00,VWS V14.01,2013-07-02 14:20:00,
2013-07-02 16:25:00,81.0,55.8,29.94,WSW,240,2.0,11.0,42,0.00,,---,0.00,654.00,VWS V14.01,2013-07-02 14:25:00,
2013-07-02 16:35:00,81.0,57.1,29.93,WNW,286,2.0,10.0,44,0.00,,---,0.00,654.00,VWS V14.01,2013-07-02 14:35:00,
2013-07-02 16:40:00,81.0,56.4,29.93,NW,315,7.0,10.0,43,0.00,,---,0.00,638.00,VWS V14.01,2013-07-02 14:40:00,
2013-07-02 16:50:00,81.5,56.2,29.93,WSW,244,7.0,11.0,42,0.00,,---,0.00,594.00,VWS V14.01,2013-07-02 14:50:00,
2013-07-02 16:55:00,81.8,56.5,29.93,NW,319,4.0,5.0,42,0.00,,---,0.00,598.00,VWS V14.01,2013-07-02 14:55:00,
2013-07-02 17:00:00,81.9,56.6,29.93,West,269,0.0,8.0,42,0.00,,---,0.00,580.00,VWS V14.01,2013-07-02 15:00:00,
2013-07-02 17:10:00,81.9,55.9,29.93,West,265,3.0,6.0,41,0.00,,---,0.00,550.00,VWS V14.01,2013-07-02 15:10:00,
2013-07-02 17:15:00,81.6,55.6,29.93,SW,230,6.0,11.0,41,0.00,,---,0.00,543.00,VWS V14.01,2013-07-02 15:15:00,
2013-07-02 17:20:00,81.4,56.1,29.93,SW,225,9.0,10.0,42,0.00,,---,0.00,534.00,VWS V14.01,2013-07-02 15:20:00,
2013-07-02 17:25:00,81.6,56.3,29.93,WSW,257,5.0,7.0,42,0.00,,---,0.00,519.00,VWS V14.01,2013-07-02 15:25:00,
2013-07-02 17:30:00,81.0,56.4,29.93,WNW,292,1.0,11.0,43,0.00,,---,0.00,497.00,VWS V14.01,2013-07-02 15:30:00,
2013-07-02 17:35:00,81.7,56.4,29.93,WNW,290,3.0,8.0,42,0.00,,---,0.00,487.00,VWS V14.01,2013-07-02 15:35:00,
2013-07-02 17:40:00,81.6,56.3,29.93,NW,317,6.0,8.0,42,0.00,,---,0.00,478.00,VWS V14.01,2013-07-02 15:40:00,
2013-07-02 17:50:00,80.7,55.5,29.93,WNW,294,6.0,15.0,42,0.00,,---,0.00,461.00,VWS V14.01,2013-07-02 15:50:00,
2013-07-02 17:55:00,81.0,55.1,29.93,West,265,9.0,11.0,41,0.00,,---,0.00,445.00,VWS V14.01,2013-07-02 15:55:00,
2013-07-02 18:00:00,81.7,55.7,29.92,WNW,290,4.0,11.0,41,0.00,,---,0.00,424.00,VWS V14.01,2013-07-02 16:00:00,
2013-07-02 18:10:00,81.0,54.4,29.92,West,277,0.0,4.0,40,0.00,,---,0.00,390.00,VWS V14.01,2013-07-02 16:10:00,
2013-07-02 18:15:00,81.5,55.5,29.92,WNW,297,9.0,10.0,41,0.00,,---,0.00,348.00,VWS V14.01,2013-07-02 16:15:00,
2013-07-02 18:20:00,81.1,55.2,29.92,West,272,2.0,6.0,41,0.00,,---,0.00,243.00,VWS V14.01,2013-07-02 16:20:00,
2013-07-02 18:30:00,80.7,55.5,29.92,West,261,5.0,6.0,42,0.00,,---,0.00,239.00,VWS V14.01,2013-07-02 16:30:00,
2013-07-02 18:40:00,80.9,55.7,29.92,West,260,0.0,5.0,42,0.00,,---,0.00,192.00,VWS V14.01,2013-07-02 16:40:00,
2013-07-02 18:45:00,80.7,56.2,29.91,West,271,2.0,7.0,43,0.00,,---,0.00,185.00,VWS V14.01,2013-07-02 16:45:00,
2013-07-02 18:55:00,80.7,55.5,29.91,West,274,6.0,7.0,42,0.00,,---,0.00,188.00,VWS V14.01,2013-07-02 16:55:00,
2013-07-02 19:00:00,80.5,55.3,29.92,West,268,3.0,6.0,42,0.00,,---,0.00,243.00,VWS V14.01,2013-07-02 17:00:00,
2013-07-02 19:10:00,80.4,55.2,29.92,West,279,4.0,7.0,42,0.00,,---,0.00,163.00,VWS V14.01,2013-07-02 17:10:00,
2013-07-02 19:20:00,80.1,55.0,29.92,WNW,290,0.0,6.0,42,0.00,,---,0.00,181.00,VWS V14.01,2013-07-02 17:20:00,
2013-07-02 19:25:00,80.0,55.5,29.92,WNW,296,0.0,2.0,43,0.00,,---,0.00,169.00,VWS V14.01,2013-07-02 17:25:00,
2013-07-02 19:30:00,80.1,55.6,29.92,NW,304,1.0,1.0,43,0.00,,---,0.00,178.00,VWS V14.01,2013-07-02 17:30:00,
2013-07-02 19:35:00,79.9,54.8,29.92,WNW,303,0.0,9.0,42,0.00,,---,0.00,146.00,VWS V14.01,2013-07-02 17:35:00,
2013-07-02 19:40:00,79.8,54.7,29.92,NW,314,0.0,2.0,42,0.00,,---,0.00,121.00,VWS V14.01,2013-07-02 17:40:00,
2013-07-02 19:45:00,80.0,54.9,29.92,WNW,283,0.0,3.0,42,0.00,,---,0.00,146.00,VWS V14.01,2013-07-02 17:45:00,
2013-07-02 19:50:00,80.1,55.6,29.92,WNW,301,0.0,2.0,43,0.00,,---,0.00,134.00,VWS V14.01,2013-07-02 17:50:00,
2013-07-02 20:00:00,79.4,55.6,29.93,NNW,336,4.0,7.0,44,0.00,,---,0.00,111.00,VWS V14.01,2013-07-02 18:00:00,
2013-07-02 20:10:00,79.0,55.9,29.93,North,355,0.0,4.0,45,0.00,,---,0.00,86.00,VWS V14.01,2013-07-02 18:10:00,
2013-07-02 20:15:00,79.1,56.0,29.93,NNW,327,0.0,3.0,45,0.00,,---,0.00,70.00,VWS V14.01,2013-07-02 18:15:00,
2013-07-02 20:20:00,78.7,56.2,29.93,NNW,341,3.0,4.0,46,0.00,,---,0.00,53.00,VWS V14.01,2013-07-02 18:20:00,
2013-07-02 20:25:00,78.3,56.4,29.93,NNW,348,0.0,3.0,47,0.00,,---,0.00,53.00,VWS V14.01,2013-07-02 18:25:00,
2013-07-02 20:35:00,78.1,55.7,29.92,NNW,348,0.0,4.0,46,0.00,,---,0.00,33.00,VWS V14.01,2013-07-02 18:35:00,
2013-07-02 20:40:00,78.0,56.2,29.92,NNW,348,1.0,1.0,47,0.00,,---,0.00,30.00,VWS V14.01,2013-07-02 18:40:00,
2013-07-02 20:45:00,78.0,56.7,29.92,North,360,2.0,5.0,48,0.00,,---,0.00,25.00,VWS V14.01,2013-07-02 18:45:00,
2013-07-02 20:50:00,78.0,56.7,29.92,North,9,2.0,5.0,48,0.00,,---,0.00,16.00,VWS V14.01,2013-07-02 18:50:00,
2013-07-02 20:55:00,77.8,56.6,29.92,North,9,0.0,4.0,48,0.00,,---,0.00,12.00,VWS V14.01,2013-07-02 18:55:00,
2013-07-02 21:00:00,77.6,57.0,29.93,North,9,1.0,1.0,49,0.00,,---,0.00,11.00,VWS V14.01,2013-07-02 19:00:00,
2013-07-02 21:10:00,77.3,57.2,29.93,North,9,0.0,0.0,50,0.00,,---,0.00,5.00,VWS V14.01,2013-07-02 19:10:00,
2013-07-02 21:20:00,76.9,56.9,29.93,North,9,0.0,0.0,50,0.00,,---,0.00,0.00,VWS V14.01,2013-07-02 19:20:00,
2013-07-02 21:25:00,76.7,57.2,29.93,North,9,0.0,0.0,51,0.00,,---,0.00,0.00,VWS V14.01,2013-07-02 19:25:00,
2013-07-02 21:30:00,76.5,57.0,29.93,North,9,0.0,0.0,51,0.00,,---,0.00,0.00,VWS V14.01,2013-07-02 19:30:00,
2013-07-02 21:35:00,76.4,57.5,29.93,North,9,0.0,0.0,52,0.00,,---,0.00,0.00,VWS V14.01,2013-07-02 19:35:00,
2013-07-02 21:40:00,76.2,57.8,29.93,North,9,0.0,0.0,53,0.00,,---,0.00,0.00,VWS V14.01,2013-07-02 19:40:00,
2013-07-02 21:45:00,75.9,58.1,29.93,North,9,0.0,0.0,54,0.00,,---,0.00,0.00,VWS V14.01,2013-07-02 19:45:00,
2013-07-02 21:55:00,75.3,58.0,29.93,North,9,0.0,0.0,55,0.00,,---,0.00,0.00,VWS V14.01,2013-07-02 19:55:00,
2013-07-02 22:00:00,75.0,58.3,29.93,North,9,0.0,0.0,56,0.00,,---,0.00,0.00,VWS V14.01,2013-07-02 20:00:00,
2013-07-02 22:10:00,74.3,58.1,29.93,North,9,0.0,0.0,57,0.00,,---,0.00,0.00,VWS V14.01,2013-07-02 20:10:00,
2013-07-02 22:15:00,74.0,58.8,29.93,North,9,0.0,0.0,59,0.00,,---,0.00,0.00,VWS V14.01,2013-07-02 20:15:00,
2013-07-02 22:25:00,73.4,58.7,29.93,North,9,0.0,0.0,60,0.00,,---,0.00,0.00,VWS V14.01,2013-07-02 20:25:00,
2013-07-02 22:30:00,73.2,58.5,29.93,North,9,0.0,0.0,60,0.00,,---,0.00,0.00,VWS V14.01,2013-07-02 20:30:00,
2013-07-02 22:35:00,72.9,58.7,29.93,North,9,0.0,0.0,61,0.00,,---,0.00,0.00,VWS V14.01,2013-07-02 20:35:00,
2013-07-02 22:45:00,72.3,58.6,29.93,North,9,0.0,0.0,62,0.00,,---,0.00,0.00,VWS V14.01,2013-07-02 20:45:00,
2013-07-02 22:50:00,72.0,58.3,29.93,North,9,0.0,0.0,62,0.00,,---,0.00,0.00,VWS V14.01,2013-07-02 20:50:00,
2013-07-02 22:55:00,71.7,58.0,29.93,North,9,0.0,0.0,62,0.00,,---,0.00,0.00,VWS V14.01,2013-07-02 20:55:00,
2013-07-02 23:00:00,71.5,57.8,29.93,North,9,0.0,0.0,62,0.00,,---,0.00,0.00,VWS V14.01,2013-07-02 21:00:00,
2013-07-02 23:10:00,71.0,57.8,29.93,North,9,0.0,0.0,63,0.00,,---,0.00,0.00,VWS V14.01,2013-07-02 21:10:00,
2013-07-02 23:20:00,70.6,57.8,29.93,North,9,0.0,0.0,64,0.00,,---,0.00,0.00,VWS V14.01,2013-07-02 21:20:00,
2013-07-02 23:25:00,70.4,57.7,29.93,North,9,0.0,0.0,64,0.00,,---,0.00,0.00,VWS V14.01,2013-07-02 21:25:00,
2013-07-02 23:30:00,70.2,57.5,29.93,North,9,0.0,0.0,64,0.00,,---,0.00,0.00,VWS V14.01,2013-07-02 21:30:00,
2013-07-02 23:35:00,70.1,57.8,29.93,North,9,0.0,0.0,65,0.00,,---,0.00,0.00,VWS V14.01,2013-07-02 21:35:00,
2013-07-02 23:40:00,69.9,57.6,29.93,North,9,0.0,0.0,65,0.00,,---,0.00,0.00,VWS V14.01,2013-07-02 21:40:00,
2013-07-02 23:45:00,69.7,57.8,29.93,North,9,0.0,0.0,66,0.00,,---,0.00,0.00,VWS V14.01,2013-07-02 21:45:00,
2013-07-02 23:50:00,69.5,57.7,29.93,North,9,0.0,0.0,66,0.00,,---,0.00,0.00,VWS V14.01,2013-07-02 21:50:00,